Latest Coastal Weather Observations for Aireys Inlet

IDV60701

Issued at 7:52 pm EST Monday 4 May 2026 (issued every 10 minutes, with the page automatically refreshed every 10 minutes)

About coastal observations | Map of coastal stations | Coastal observations for VIC | Marine services | Other Formats
Station Details ID: 090180 Name: AIREYS INLET Lat: -38.46 Lon: 144.09 Height: 105.0 m
Data from the previous 72 hours. | See also: Recent months at Aireys Inlet
Date/Time
EST
Wind Sea
Height
m
Swell Vis
km
Cloud Weather Temp
°C
Press
MSL
hPa
Rain since
9am
mm
Dir  Spd
kts
Gust
kts
Height
m
Period
s
Dir
04/07:38pm NW 16 27 - - - - - - - 13.2 - 0.6
04/07:30pm NW 17 25 - - - - - - - 13.4 - 0.6
04/07:00pm NNW 17 28 - - - - - - - 13.9 - 0.6
04/06:30pm NNW 15 27 - - - - - - - 13.9 - 0.6
04/06:28pm NNW 15 26 - - - - - - - 13.8 - 0.6
04/06:00pm NNW 14 23 - - - - - - - 14.3 - 0.6
04/05:37pm NNW 15 30 - - - - - - - 14.2 - 0.6
04/05:30pm NNW 13 21 - - - - - - - 14.0 - 0.6
04/05:00pm NNW 13 21 - - - - - - - 14.6 - 0.6
04/04:30pm NNW 13 24 - - - - - - - 14.4 - 0.6
04/04:07pm N 15 29 - - - - - - - 14.5 - 0.6
04/04:00pm N 12 19 - - - - - - - 14.9 - 0.4
04/03:31pm N 15 27 - - - - - - - 16.8 - 0.0
04/03:30pm N 14 24 - - - - - - - 16.7 - 0.0
04/03:09pm N 16 27 - - - - - - - 17.0 - 0.0
04/03:00pm N 16 26 - - - - - - - 16.9 - 0.0
04/02:34pm N 15 27 - - - - - - - 17.2 - 0.0
04/02:30pm N 11 21 - - - - - - - 17.4 - 0.0
04/02:01pm N 15 25 - - - - - - - 16.9 - 0.0
04/02:00pm N 14 25 - - - - - - - 17.0 - 0.0
04/01:30pm N 16 32 - - - - - - - 17.2 - 0.0
04/01:00pm N 16 28 - - - - - - - 17.5 - 0.0
04/12:30pm N 16 32 - - - - - - - 17.4 - 0.0
04/12:00pm N 16 30 - - - - - - - 16.7 - 0.0
04/11:30am N 19 33 - - - - - - - 16.0 - 0.0
04/11:00am N 17 29 - - - - - - - 15.4 - 0.0
04/10:30am N 17 32 - - - - - - - 15.1 - 0.0
04/10:00am N 15 25 - - - - - - - 14.9 - 0.0
04/09:43am N 15 27 - - - - - - - 14.4 - 0.0
04/09:30am N 12 24 - - - - - - - 14.1 - 0.0
04/09:00am N 15 28 - - - - - - - 13.4 - 10.0
04/08:52am N 15 28 - - - - - - - 13.4 - 10.0
04/08:30am N 14 21 - - - - - - - 12.9 - 10.0
04/08:00am N 14 23 - - - - - - - 12.1 - 10.0
04/07:30am N 14 22 - - - - - - - 11.4 - 10.0
04/07:00am N 12 18 - - - - - - - 10.9 - 10.0
04/06:30am NNE 13 19 - - - - - - - 10.8 - 10.0
04/06:00am NNE 8 13 - - - - - - - 9.2 - 10.0
04/05:30am NNE 6 9 - - - - - - - 8.6 - 10.0
04/05:00am NE 6 9 - - - - - - - 8.8 - 10.0
04/04:30am NNE 7 10 - - - - - - - 9.2 - 10.0
04/04:00am NNE 6 9 - - - - - - - 10.6 - 10.0
04/03:30am NNE 8 13 - - - - - - - 10.9 - 10.0
04/03:00am NNE 7 12 - - - - - - - 11.2 - 10.0
04/02:30am NNE 8 13 - - - - - - - 11.4 - 10.0
04/02:00am NNE 5 10 - - - - - - - 11.5 - 10.0
04/01:30am N 11 18 - - - - - - - 12.4 - 10.0
04/01:00am N 12 17 - - - - - - - 12.6 - 10.0
04/12:30am N 11 19 - - - - - - - 14.1 - 10.0
04/12:00am N 10 18 - - - - - - - 13.5 - 10.0
 
Date/Time
EST
Wind Sea
Height
m
Swell Vis
km
Cloud Weather Temp
°C
Press
MSL
hPa
Rain since
9am
mm
Dir  Spd
kts
Gust
kts
Height
m
Period
s
Dir
03/11:30pm N 10 16 - - - - - - - 13.5 - 10.0
03/11:00pm N 10 16 - - - - - - - 13.4 - 10.0
03/10:30pm NNE 7 9 - - - - - - - 12.6 - 10.0
03/10:00pm NNE 8 13 - - - - - - - 12.7 - 10.0
03/09:30pm NNE 9 15 - - - - - - - 12.8 - 10.0
03/09:00pm NNE 6 10 - - - - - - - 12.5 - 10.0
03/08:30pm NNE 7 10 - - - - - - - 12.8 - 10.0
03/08:00pm N 7 11 - - - - - - - 14.4 - 10.0
03/07:30pm N 6 9 - - - - - - - 14.7 - 10.0
03/07:00pm NNW 7 11 - - - - - - - 15.3 - 10.0
03/06:30pm N 6 10 - - - - - - - 15.4 - 10.0
03/06:00pm N 8 14 - - - - - - - 16.1 - 10.0
03/05:30pm N 8 15 - - - - - - - 16.7 - 10.0
03/05:00pm N 8 14 - - - - - - - 17.7 - 10.0
03/04:30pm N 10 18 - - - - - - - 18.1 - 10.0
03/04:00pm NNW 8 16 - - - - - - - 18.2 - 10.0
03/03:30pm NNW 10 18 - - - - - - - 18.6 - 10.0
03/03:00pm NNW 12 18 - - - - - - - 18.3 - 10.0
03/02:30pm NNW 10 20 - - - - - - - 18.1 - 10.0
03/02:00pm NW 11 19 - - - - - - - 17.2 - 10.0
03/01:30pm NNW 12 19 - - - - - - - 16.1 - 10.0
03/01:00pm NW 15 23 - - - - - - - 15.3 - 10.0
03/12:30pm NW 12 20 - - - - - - - 15.0 - 10.0
03/12:00pm NW 11 16 - - - - - - Recent precip. 14.3 - 10.0
03/11:30am NW 13 22 - - - - - - - 13.9 - 10.0
03/11:00am NNW 7 14 - - - - - - - 15.5 - 7.6
03/10:30am N 10 15 - - - - - - - 16.3 - 4.6
03/10:00am N 9 14 - - - - - - - 16.8 - 0.6
03/09:30am N 11 22 - - - - - - - 17.0 - 0.4
03/09:24am NNE 12 22 - - - - - - - 17.0 - 0.4
03/09:05am N 13 22 - - - - - - - 18.0 - 0.0
03/09:00am N 11 22 - - - - - - - 18.0 - 3.6
03/08:30am N 11 19 - - - - - - - 17.6 - 3.6
03/08:00am NNE 10 17 - - - - - - - 17.4 - 3.6
03/07:30am NNE 11 16 - - - - - - - 17.6 - 3.6
03/07:00am N 12 19 - - - - - - - 17.7 - 3.6
03/06:30am N 15 24 - - - - - - - 17.5 - 3.6
03/06:00am NNE 11 17 - - - - - - Recent precip. 17.3 - 3.6
03/05:30am NNE 11 18 - - - - - - - 16.5 - 3.4
03/05:00am NNE 11 16 - - - - - - - 17.0 - 3.2
03/04:30am NNE 11 17 - - - - - - - 17.7 - 3.0
03/04:00am NNE 11 17 - - - - - - - 17.6 - 3.0
03/03:30am NNE 10 15 - - - - - - - 16.3 - 3.0
03/03:00am NNE 7 10 - - - - - - Recent precip. 15.7 - 3.0
03/02:30am N 10 14 - - - - - - - 16.0 - 3.0
03/02:00am NNE 7 10 - - - - - - - 16.2 - 2.4
03/01:30am N 11 16 - - - - - - - 16.3 - 2.2
03/01:00am NNE 9 14 - - - - - - - 16.4 - 1.6
03/12:30am NNE 7 12 - - - - - - - 16.6 - 1.2
03/12:00am NNE 10 15 - - - - - - Rain 16.7 - 1.2
 
Date/Time
EST
Wind Sea
Height
m
Swell Vis
km
Cloud Weather Temp
°C
Press
MSL
hPa
Rain since
9am
mm
Dir  Spd
kts
Gust
kts
Height
m
Period
s
Dir
02/11:30pm N 12 17 - - - - - - - 16.7 - 1.0
02/11:00pm N 14 22 - - - - - - - 17.2 - 0.6
02/10:30pm N 16 23 - - - - - - - 17.1 - 0.4
02/10:00pm N 16 27 - - - - - - - 17.9 - 0.0
02/09:54pm N 16 27 - - - - - - - 18.3 - 0.0
02/09:30pm N 14 23 - - - - - - - 19.5 - 0.0
02/09:00pm N 13 20 - - - - - - - 20.5 - 0.0
02/08:30pm N 11 18 - - - - - - - 20.8 - 0.0
02/08:00pm N 9 15 - - - - - - - 21.6 - 0.0
02/07:30pm N 10 18 - - - - - - - 22.0 - 0.0
02/07:00pm NNE 9 14 - - - - - - - 21.9 - 0.0
02/06:30pm NNE 7 13 - - - - - - - 21.9 - 0.0
02/06:00pm NNE 8 14 - - - - - - - 22.3 - 0.0
02/05:30pm NNE 9 15 - - - - - - - 22.7 - 0.0
02/05:00pm NNE 9 18 - - - - - - - 23.4 - 0.0
02/04:30pm NNE 8 12 - - - - - - - 23.5 - 0.0
02/04:00pm NNE 8 13 - - - - - - - 23.2 - 0.0
02/03:30pm NE 8 15 - - - - - - - 23.8 - 0.0
02/03:00pm NE 10 16 - - - - - - - 24.7 - 0.0
02/02:30pm NE 8 14 - - - - - - - 24.1 - 0.0
02/02:00pm NNE 8 14 - - - - - - - 23.3 - 0.0
02/01:30pm NE 8 15 - - - - - - - 22.6 - 0.0
02/01:00pm NNE 10 17 - - - - - - - 22.9 - 0.0
02/12:30pm NNE 10 19 - - - - - - - 24.0 - 0.0
02/12:00pm NNE 10 16 - - - - - - - 23.2 - 0.0
02/11:30am N 12 20 - - - - - - - 22.5 - 0.0
02/11:00am NNE 8 17 - - - - - - - 22.2 - 0.0
02/10:30am N 10 19 - - - - - - - 21.9 - 0.0
02/10:00am NNE 10 20 - - - - - - - 21.5 - 0.0
02/09:30am NNE 9 16 - - - - - - - 20.6 - 0.0
02/09:00am NNE 9 13 - - - - - - - 19.4 - 0.0
02/08:30am NNE 8 13 - - - - - - - 18.7 - 0.0
02/08:00am NNE 9 16 - - - - - - - 18.0 - 0.0
02/07:30am NNE 9 15 - - - - - - - 17.2 - 0.0
02/07:00am NNE 11 18 - - - - - - - 17.4 - 0.0
02/06:30am NNE 9 14 - - - - - - - 17.3 - 0.0
02/06:00am NNE 9 15 - - - - - - - 17.0 - 0.0
02/05:30am NNE 10 14 - - - - - - - 17.3 - 0.0
02/05:00am NNE 10 17 - - - - - - - 17.6 - 0.0
02/04:30am NNE 8 12 - - - - - - - 16.7 - 0.0
02/04:00am NNE 7 10 - - - - - - - 16.9 - 0.0
02/03:30am NNE 8 13 - - - - - - - 17.6 - 0.0
02/03:00am NNE 8 14 - - - - - - - 17.8 - 0.0
02/02:30am NNE 8 15 - - - - - - - 18.5 - 0.0
02/02:00am NNE 8 17 - - - - - - - 18.5 - 0.0
02/01:30am NNE 8 13 - - - - - - - 18.3 - 0.0
02/01:00am NNE 8 15 - - - - - - - 18.6 - 0.0
02/12:30am NNE 8 13 - - - - - - - 19.0 - 0.0
02/12:00am NNE 9 15 - - - - - - - 19.6 - 0.0
 
Date/Time
EST
Wind Sea
Height
m
Swell Vis
km
Cloud Weather Temp
°C
Press
MSL
hPa
Rain since
9am
mm
Dir  Spd
kts
Gust
kts
Height
m
Period
s
Dir
01/11:30pm NNE 9 16 - - - - - - - 19.8 - 0.0
01/11:00pm NNE 9 13 - - - - - - - 20.0 - 0.0
01/10:30pm NNE 9 16 - - - - - - - 20.3 - 0.0
01/10:00pm NNE 7 13 - - - - - - - 20.0 - 0.0
01/09:30pm NNE 7 10 - - - - - - - 19.7 - 0.0
01/09:00pm NNE 7 11 - - - - - - - 20.3 - 0.0
01/08:30pm NNE 8 13 - - - - - - - 20.5 - 0.0
01/08:00pm NNE 7 10 - - - - - - - 20.6 - 0.0

Other formats

Comma delimited format used in spreadsheet applications
http://www.bom.gov.au/fwo/IDV60701/IDV60701.94846.axf

JavaScript Object Notation format (JSON) in row-major order
http://www.bom.gov.au/fwo/IDV60701/IDV60701.94846.json

Data quality

Most of these data are generated automatically and are frequently updated. Quality checks on data are not normally performed. It is possible for incorrect values to appear. Refer to information at About Latest Weather Observations and please check the disclaimer before using these data.